Time;durP1;ratioP1;P1;durP2;ratioP2;P2;SDS_P1;SDS_P2;PMS_P1;PMS_P2;Temp;Humidity;BMP_temperature;BMP_pressure;BME280_temperature;BME280_humidity;BME280_pressure;Samples;Min_cycle;Max_cycle;Signal;HPM_P1;HPM_P2
2021/06/06 00:01:09;;;;;;;12.68;8.63;;;;;;;19.82;65.39;99164.03;5135115;27;20050;-93
2021/06/06 00:03:38;;;;;;;12.93;8.10;;;;;;;19.97;65.45;99183.84;5135568;27;20491;-93
2021/06/06 00:06:07;;;;;;;13.73;8.68;;;;;;;19.97;65.58;99184.72;5144019;27;20039;-92
2021/06/06 00:08:34;;;;;;;14.27;8.40;;;;;;;19.83;65.78;99153.16;5135909;27;20526;-94
2021/06/06 00:11:05;;;;;;;16.25;8.13;;;;;;;19.81;65.44;99140.72;5135984;27;20508;-92
2021/06/06 00:13:38;;;;;;;14.35;8.25;;;;;;;19.81;65.42;99129.91;5135915;27;20571;-94
2021/06/06 00:16:05;;;;;;;12.60;8.05;;;;;;;19.93;65.64;99150.78;5135410;27;20200;-94
2021/06/06 00:18:34;;;;;;;20.98;8.25;;;;;;;19.90;65.92;99143.72;5136533;27;20047;-93
2021/06/06 00:21:01;;;;;;;17.20;8.80;;;;;;;19.88;65.69;99134.84;5135449;27;20042;-94
2021/06/06 00:23:27;;;;;;;15.65;8.30;;;;;;;19.96;65.26;99145.19;5137188;27;20499;-94
2021/06/06 00:25:53;;;;;;;15.90;8.65;;;;;;;19.96;65.53;99134.41;5136916;27;20434;-93
2021/06/06 00:28:19;;;;;;;17.75;8.48;;;;;;;19.85;65.40;99120.69;5135638;27;20035;-95
2021/06/06 00:30:46;;;;;;;15.45;8.32;;;;;;;19.90;65.92;99134.75;5134639;27;20117;-94
2021/06/06 00:33:12;;;;;;;13.45;8.77;;;;;;;19.85;65.52;99118.84;5135514;27;20031;-94
2021/06/06 00:35:38;;;;;;;15.88;8.05;;;;;;;19.86;65.69;99114.31;5135266;27;20492;-93
2021/06/06 00:38:04;;;;;;;14.48;8.65;;;;;;;19.87;65.76;99122.31;5135158;27;20518;-92
2021/06/06 00:40:32;;;;;;;15.15;8.82;;;;;;;19.95;66.06;99135.38;5135261;27;20043;-92
2021/06/06 00:42:58;;;;;;;15.48;8.77;;;;;;;19.93;66.01;99125.59;5134808;27;20042;-92
2021/06/06 00:45:29;;;;;;;16.42;9.00;;;;;;;19.86;66.60;99112.50;5134106;27;20487;-93
2021/06/06 00:47:58;;;;;;;18.25;8.90;;;;;;;19.79;66.73;99116.50;5135110;27;20042;-93
2021/06/06 00:50:25;;;;;;;;;;;;;;;19.86;66.48;99128.69;5138937;27;20043;-94
2021/06/06 00:52:56;;;;;;;15.63;9.25;;;;;;;19.76;66.73;99105.91;5135169;27;19928;-94
2021/06/06 00:55:22;;;;;;;18.23;9.32;;;;;;;19.73;66.86;99108.75;5127591;27;20044;-93
2021/06/06 00:57:49;;;;;;;15.18;8.95;;;;;;;19.70;67.35;99104.44;5134472;27;20118;-92
2021/06/06 01:00:22;;;;;;;16.23;9.07;;;;;;;19.75;67.62;99098.75;5134055;27;20060;-91
2021/06/06 01:02:49;;;;;;;15.40;8.88;;;;;;;19.99;67.10;99099.09;5139194;27;20063;-92
2021/06/06 01:05:27;;;;;;;19.15;9.60;;;;;;;19.83;66.54;99095.63;5135354;27;20031;-94
2021/06/06 01:07:53;;;;;;;16.70;10.20;;;;;;;19.76;66.81;99092.41;5131894;27;20096;-92
2021/06/06 01:10:20;;;;;;;14.60;9.05;;;;;;;19.75;67.27;99095.19;5136416;27;20046;-93
2021/06/06 01:12:50;;;;;;;13.68;9.00;;;;;;;19.61;67.04;99074.41;5134746;27;20392;-93
2021/06/06 01:15:20;;;;;;;14.75;9.98;;;;;;;19.63;66.99;99080.59;5134237;27;20069;-92
2021/06/06 01:17:53;;;;;;;20.42;9.38;;;;;;;19.68;67.14;99084.72;5135559;27;20088;-93
2021/06/06 01:20:33;;;;;;;17.52;9.38;;;;;;;19.72;66.93;99090.00;5134832;27;20047;-92
2021/06/06 01:23:08;;;;;;;18.75;9.55;;;;;;;19.76;67.18;99107.75;5134641;28;20062;-92
2021/06/06 01:25:41;;;;;;;18.25;9.73;;;;;;;19.68;66.88;99081.16;5134656;28;20043;-94
2021/06/06 01:28:12;;;;;;;17.80;9.35;;;;;;;19.65;66.90;99079.53;5134794;28;20062;-92
2021/06/06 01:30:42;;;;;;;17.13;9.88;;;;;;;19.57;66.70;99071.00;5134936;28;20043;-92
2021/06/06 01:33:13;;;;;;;18.40;9.70;;;;;;;19.68;66.88;99086.56;5134625;28;20442;-94
2021/06/06 01:35:44;;;;;;;13.60;9.43;;;;;;;19.53;67.85;99068.59;5136077;27;20092;-93
2021/06/06 01:38:15;;;;;;;17.52;9.93;;;;;;;19.53;68.01;99068.59;5131721;28;20089;-94
2021/06/06 01:40:44;;;;;;;15.23;9.55;;;;;;;19.55;67.86;99069.38;5140399;27;20039;-92
2021/06/06 01:43:15;;;;;;;16.20;10.05;;;;;;;19.49;68.81;99087.63;5137500;27;20039;-93
2021/06/06 01:45:46;;;;;;;18.42;9.48;;;;;;;19.35;69.26;99073.25;5133794;28;20091;-94
2021/06/06 01:48:14;;;;;;;14.70;9.25;;;;;;;19.22;69.52;99056.91;5133432;28;20038;-93
2021/06/06 01:50:42;;;;;;;15.20;9.80;;;;;;;19.30;69.54;99068.13;5134850;28;20126;-93
2021/06/06 01:53:09;;;;;;;16.00;9.57;;;;;;;19.21;69.85;99064.09;5135110;28;20035;-93
2021/06/06 01:55:44;;;;;;;19.38;9.55;;;;;;;19.25;70.29;99072.88;5134328;28;20035;-94
2021/06/06 01:58:12;;;;;;;18.60;9.80;;;;;;;19.20;69.50;99059.69;5134205;28;20070;-92
2021/06/06 02:00:43;;;;;;;17.85;8.95;;;;;;;19.21;69.30;99065.94;5133375;28;20587;-94
2021/06/06 02:03:09;;;;;;;14.77;9.50;;;;;;;19.18;69.19;99066.97;5134137;28;20035;-93
2021/06/06 02:05:35;;;;;;;15.18;8.90;;;;;;;19.13;69.75;99071.78;5133983;28;20492;-94
2021/06/06 02:08:03;;;;;;;17.52;9.20;;;;;;;19.04;69.46;99051.63;5130074;27;20050;-91
2021/06/06 02:10:34;;;;;;;14.25;9.80;;;;;;;19.03;69.40;99060.66;5137578;27;20039;-93
2021/06/06 02:13:09;;;;;;;18.70;9.43;;;;;;;18.98;69.26;99062.75;5138013;27;20066;-91
2021/06/06 02:15:38;;;;;;;16.58;9.18;;;;;;;18.85;69.70;99051.78;5139575;27;20047;-92
2021/06/06 02:18:08;;;;;;;16.10;9.40;;;;;;;18.76;70.08;99054.97;5137464;27;20071;-93
2021/06/06 02:20:37;;;;;;;13.10;9.20;;;;;;;18.57;70.17;99033.56;5137649;27;20050;-94
2021/06/06 02:23:04;;;;;;;18.60;9.93;;;;;;;18.64;70.17;99045.72;5122959;27;20044;-92
2021/06/06 02:25:30;;;;;;;16.02;9.77;;;;;;;18.46;70.10;99019.84;5116955;28;20038;-90
2021/06/06 02:28:09;;;;;;;16.55;9.90;;;;;;;18.34;70.65;99036.66;5117431;28;20034;-92
2021/06/06 02:30:42;;;;;;;19.15;10.00;;;;;;;18.29;71.20;99039.59;5116395;28;20041;-92
2021/06/06 02:33:14;;;;;;;15.70;10.02;;;;;;;18.21;71.66;99042.69;5113220;28;20031;-92
2021/06/06 02:35:46;;;;;;;14.98;10.23;;;;;;;18.14;71.57;99037.75;5117109;28;20063;-93
2021/06/06 02:38:15;;;;;;;17.48;10.15;;;;;;;18.12;71.44;99032.44;5111006;28;20031;-93
2021/06/06 02:40:45;;;;;;;17.60;10.27;;;;;;;18.09;72.20;99064.91;5117422;28;20035;-92
2021/06/06 02:43:17;;;;;;;16.77;10.55;;;;;;;17.90;72.76;99037.25;5111927;28;20032;-92
2021/06/06 02:45:44;;;;;;;19.70;11.35;;;;;;;17.78;73.26;99044.97;5116506;28;20583;-93
2021/06/06 02:48:15;;;;;;;22.52;12.25;;;;;;;17.71;73.61;99046.22;5117098;28;20046;-93
2021/06/06 02:50:43;;;;;;;19.10;11.55;;;;;;;17.53;73.64;99025.69;5117025;28;20039;-93
2021/06/06 02:53:17;;;;;;;16.35;10.50;;;;;;;17.59;73.62;99030.75;5117782;28;20071;-92
2021/06/06 02:55:46;;;;;;;18.13;11.65;;;;;;;17.60;73.81;99027.94;5117209;28;20035;-92
2021/06/06 02:58:19;;;;;;;19.20;11.43;;;;;;;17.54;73.93;99022.88;5117153;28;20044;-94
2021/06/06 03:00:48;;;;;;;16.08;10.98;;;;;;;17.59;73.89;99046.88;5113806;28;20050;-93
2021/06/06 03:03:17;;;;;;;;;;;;;;;17.56;74.27;99050.56;5118766;28;20078;-92
2021/06/06 03:05:43;;;;;;;19.80;12.20;;;;;;;17.29;75.04;99017.91;5117352;28;19920;-93
2021/06/06 03:08:11;;;;;;;21.52;12.13;;;;;;;17.33;75.36;99038.31;5117221;28;20059;-93
2021/06/06 03:10:39;;;;;;;20.92;12.15;;;;;;;17.25;75.21;99022.56;5116854;28;20496;-91
2021/06/06 03:13:08;;;;;;;18.75;11.68;;;;;;;17.27;75.34;99029.69;5116963;28;20042;-93
2021/06/06 03:15:38;;;;;;;;;;;;;;;17.35;75.21;99033.72;5115535;28;20047;-95
2021/06/06 03:18:06;;;;;;;21.25;11.18;;;;;;;17.33;74.68;99032.06;5116274;28;20373;-93
2021/06/06 03:20:36;;;;;;;17.33;10.88;;;;;;;17.13;74.75;99011.53;5116749;28;20095;-94
2021/06/06 03:23:04;;;;;;;17.80;10.52;;;;;;;17.24;74.92;99034.28;5116055;28;20512;-92
2021/06/06 03:25:39;;;;;;;27.93;10.60;;;;;;;17.12;74.97;99018.75;5116746;28;20038;-92
2021/06/06 03:28:07;;;;;;;17.63;10.50;;;;;;;17.11;74.59;99027.78;5116572;28;20074;-92
2021/06/06 03:30:38;;;;;;;19.35;11.10;;;;;;;17.18;74.61;99033.72;5116770;28;20051;-91
2021/06/06 03:33:09;;;;;;;18.67;10.55;;;;;;;17.15;74.62;99034.69;5116635;28;20047;-91
2021/06/06 03:35:36;;;;;;;17.30;10.18;;;;;;;17.22;74.35;99056.78;5116282;28;20491;-93
2021/06/06 03:38:02;;;;;;;18.83;10.20;;;;;;;17.09;74.15;99020.72;5116124;28;20500;-94
2021/06/06 03:40:32;;;;;;;15.25;9.95;;;;;;;17.07;74.06;99019.91;5117974;27;20095;-91
2021/06/06 03:45:51;;;;;;;16.17;9.95;;;;;;;17.13;73.60;99038.41;5100313;28;20043;-92
2021/06/06 03:48:18;;;;;;;19.45;10.15;;;;;;;17.17;73.40;99038.19;5115896;28;20036;-90
2021/06/06 03:50:45;;;;;;;16.10;9.27;;;;;;;17.11;73.12;99029.56;5115395;28;20138;-93
2021/06/06 03:53:12;;;;;;;15.23;9.07;;;;;;;17.10;73.27;99017.94;5116289;28;20036;-93
2021/06/06 03:55:38;;;;;;;14.43;9.27;;;;;;;17.24;72.95;99034.28;5116175;28;20047;-93
2021/06/06 03:58:04;;;;;;;16.75;10.07;;;;;;;17.25;72.89;99038.69;5115832;28;20101;-94
2021/06/06 04:00:33;;;;;;;13.82;8.70;;;;;;;17.07;72.95;99014.53;5114815;28;20063;-93
2021/06/06 04:03:00;;;;;;;13.95;9.45;;;;;;;17.31;72.93;99040.19;5103033;28;20070;-91
2021/06/06 04:05:27;;;;;;;17.45;9.63;;;;;;;17.29;72.75;99025.09;5115139;28;20043;-92
2021/06/06 04:07:53;;;;;;;18.83;8.75;;;;;;;17.31;72.84;99033.97;5115841;28;20097;-93
2021/06/06 04:10:20;;;;;;;14.65;8.88;;;;;;;17.22;73.08;99022.72;5114961;28;20444;-91
2021/06/06 04:12:46;;;;;;;17.45;10.00;;;;;;;17.26;73.01;99023.41;5114727;28;20044;-90
2021/06/06 04:15:13;;;;;;;16.50;9.65;;;;;;;17.38;72.74;99027.31;5112930;28;20508;-92
2021/06/06 04:17:39;;;;;;;15.95;9.32;;;;;;;17.35;72.44;99012.22;5114588;28;20085;-93
2021/06/06 04:20:09;;;;;;;14.82;9.90;;;;;;;17.51;72.78;99030.25;5114307;28;20044;-92
2021/06/06 04:22:35;;;;;;;19.77;9.52;;;;;;;17.47;72.95;99026.84;5125112;27;20051;-92
2021/06/06 04:25:02;;;;;;;16.10;10.00;;;;;;;17.44;73.21;99030.56;5136436;27;20422;-92
2021/06/06 04:27:28;;;;;;;18.05;9.50;;;;;;;17.39;73.33;99013.81;5136638;27;20039;-93
2021/06/06 04:29:54;;;;;;;17.38;9.75;;;;;;;17.48;73.58;99025.03;5136075;27;20035;-94
2021/06/06 04:32:20;;;;;;;15.07;10.27;;;;;;;17.47;73.43;99012.53;5134615;27;20035;-93
2021/06/06 04:34:48;;;;;;;15.52;9.02;;;;;;;17.47;73.46;99007.16;5136027;27;20046;-92
2021/06/06 04:37:17;;;;;;;16.77;9.40;;;;;;;17.64;73.13;99028.66;5128940;27;20100;-91
2021/06/06 04:39:43;;;;;;;18.63;9.30;;;;;;;17.51;72.55;98998.00;5136144;27;20044;-92
2021/06/06 04:42:10;;;;;;;18.25;9.25;;;;;;;17.61;72.51;98999.25;5135425;27;20075;-93
2021/06/06 04:44:37;;;;;;;16.15;9.65;;;;;;;17.79;71.83;99010.88;5135428;27;20035;-90
2021/06/06 04:47:04;;;;;;;15.00;9.77;;;;;;;17.94;71.27;99012.78;5133880;27;20523;-91
2021/06/06 04:49:29;;;;;;;18.63;9.55;;;;;;;18.02;71.38;99021.31;5139996;27;20495;-92
2021/06/06 04:51:55;;;;;;;16.42;9.15;;;;;;;18.17;70.79;99022.31;5135243;27;20039;-92
2021/06/06 04:54:22;;;;;;;16.25;9.20;;;;;;;18.50;69.75;99009.75;5134952;27;20101;-91
2021/06/06 04:56:48;;;;;;;16.05;9.65;;;;;;;19.00;68.15;99012.31;5133959;27;20138;-93
2021/06/06 04:59:14;;;;;;;14.75;9.10;;;;;;;19.58;65.91;99009.81;5133983;27;20126;-91
2021/06/06 05:01:40;;;;;;;16.98;9.20;;;;;;;20.19;63.84;98997.13;5132253;27;20043;-92
2021/06/06 05:04:06;;;;;;;15.13;8.93;;;;;;;20.63;62.47;98994.31;5133837;27;20038;-93
2021/06/06 05:06:32;;;;;;;13.98;8.85;;;;;;;20.93;60.77;98993.28;5133285;27;20127;-91
2021/06/06 05:08:58;;;;;;;17.23;9.38;;;;;;;21.04;60.76;99009.66;5135558;27;20496;-92
2021/06/06 05:11:25;;;;;;;15.68;8.65;;;;;;;21.27;59.85;99007.25;5134044;27;20209;-93
2021/06/06 05:13:51;;;;;;;15.00;8.50;;;;;;;21.71;58.95;99001.56;5134389;27;20484;-92
2021/06/06 05:16:17;;;;;;;16.05;9.20;;;;;;;21.91;58.20;98988.47;5133076;27;20126;-91
2021/06/06 05:18:43;;;;;;;13.80;9.25;;;;;;;21.99;57.19;98971.66;5132333;27;20043;-93
2021/06/06 05:21:08;;;;;;;15.45;8.60;;;;;;;22.35;56.00;98990.75;5134081;27;20400;-91
2021/06/06 05:23:34;;;;;;;13.48;8.68;;;;;;;22.20;56.26;98972.00;5133156;27;20043;-92
2021/06/06 05:26:01;;;;;;;17.33;8.77;;;;;;;21.88;58.00;98985.97;5136476;27;20131;-91
2021/06/06 05:28:31;;;;;;;11.80;8.15;;;;;;;22.23;57.56;98985.34;5133351;28;20118;-91
2021/06/06 05:30:57;;;;;;;13.90;8.20;;;;;;;22.00;57.31;98982.41;5132673;28;20126;-91
2021/06/06 05:33:24;;;;;;;15.45;8.95;;;;;;;21.80;57.35;98982.94;5129619;28;20480;-92
2021/06/06 05:35:50;;;;;;;15.82;8.82;;;;;;;21.64;58.35;98989.44;5134285;28;20519;-91
2021/06/06 05:38:18;;;;;;;17.90;8.75;;;;;;;22.03;56.93;98971.34;5133663;28;20415;-92
2021/06/06 05:40:44;;;;;;;16.13;9.15;;;;;;;22.51;55.71;98990.53;5137875;28;20043;-93
2021/06/06 05:43:12;;;;;;;16.00;9.05;;;;;;;22.66;53.89;98980.41;5138858;27;20074;-93
2021/06/06 05:45:39;;;;;;;15.98;8.60;;;;;;;23.31;51.69;98981.91;5139985;27;20039;-93
2021/06/06 05:48:07;;;;;;;13.65;7.63;;;;;;;23.88;49.18;98982.97;5142121;27;20046;-93
2021/06/06 05:50:35;;;;;;;11.63;7.72;;;;;;;23.97;48.35;98976.81;5141326;27;20407;-95
2021/06/06 05:53:01;;;;;;;;;;;;;;;23.95;47.42;98995.06;5141305;27;20062;-94
2021/06/06 05:55:27;;;;;;;10.23;6.20;;;;;;;24.04;44.67;98979.03;5143902;27;19927;-93
2021/06/06 05:57:53;;;;;;;12.27;7.45;;;;;;;24.10;46.28;98982.13;5141426;27;20110;-93
2021/06/06 06:00:22;;;;;;;12.00;7.28;;;;;;;24.29;46.57;98986.97;5139393;27;20113;-94
2021/06/06 06:02:49;;;;;;;12.38;7.25;;;;;;;24.30;46.70;98976.94;5141788;27;20043;-93
2021/06/06 06:05:16;;;;;;;14.82;7.65;;;;;;;23.70;47.78;98998.81;5142249;27;20049;-93
2021/06/06 06:07:41;;;;;;;11.95;7.60;;;;;;;23.56;48.54;98986.28;5143772;27;20846;-93
2021/06/06 06:10:09;;;;;;;14.80;8.73;;;;;;;22.42;51.61;98998.44;5141798;27;20037;-92
2021/06/06 06:12:36;;;;;;;14.38;7.88;;;;;;;22.60;51.75;99007.97;5136696;27;20051;-93
2021/06/06 06:15:02;;;;;;;12.25;8.20;;;;;;;22.62;50.96;98994.28;5143031;27;20046;-92
2021/06/06 06:17:28;;;;;;;14.02;8.23;;;;;;;22.98;50.36;98996.09;5140062;27;20047;-92
2021/06/06 06:19:55;;;;;;;17.70;8.48;;;;;;;23.61;48.82;99013.09;5137801;27;20031;-92
2021/06/06 06:22:21;;;;;;;13.85;8.15;;;;;;;23.87;48.57;99016.53;5136734;27;20047;-91
2021/06/06 06:24:47;;;;;;;13.50;7.65;;;;;;;23.84;47.98;99011.34;5137786;27;20122;-92
2021/06/06 06:27:13;;;;;;;13.80;7.70;;;;;;;23.66;48.00;99008.19;5138268;27;20480;-92
2021/06/06 06:29:39;;;;;;;12.25;8.05;;;;;;;23.53;48.81;99010.09;5138925;27;20039;-92
2021/06/06 06:32:05;;;;;;;13.30;6.97;;;;;;;23.42;48.51;99012.75;5136787;27;20043;-92
2021/06/06 06:34:31;;;;;;;13.52;8.15;;;;;;;23.51;49.07;99007.50;5139354;27;20472;-92
2021/06/06 06:36:59;;;;;;;14.57;7.82;;;;;;;23.36;49.63;99006.84;5139300;27;20043;-93
2021/06/06 06:39:25;;;;;;;13.70;8.63;;;;;;;23.13;50.33;99000.41;5140094;27;20538;-92
2021/06/06 06:41:52;;;;;;;14.93;7.60;;;;;;;22.76;49.67;99022.09;5139683;27;20752;-93
2021/06/06 06:44:17;;;;;;;16.08;7.43;;;;;;;22.59;50.54;99018.91;5139784;27;20088;-93
2021/06/06 06:46:43;;;;;;;14.35;8.05;;;;;;;22.58;50.58;99012.63;5138439;27;20039;-92
2021/06/06 06:49:09;;;;;;;10.48;7.10;;;;;;;22.87;50.39;98998.75;5139285;27;20554;-91
2021/06/06 06:51:35;;;;;;;13.93;7.63;;;;;;;23.48;49.17;99009.59;5139105;27;20134;-93
2021/06/06 06:54:03;;;;;;;16.95;8.10;;;;;;;23.65;48.88;98994.72;5138076;27;20035;-91
2021/06/06 06:56:29;;;;;;;16.00;8.27;;;;;;;23.37;48.97;98988.69;5136578;27;20043;-93
2021/06/06 06:59:00;;;;;;;16.52;7.60;;;;;;;23.19;49.69;99019.94;5136488;27;20054;-93
2021/06/06 07:01:30;;;;;;;11.23;7.20;;;;;;;22.71;51.41;99004.47;5134104;27;20573;-93
2021/06/06 07:03:58;;;;;;;13.90;7.88;;;;;;;23.01;50.03;99023.06;5134580;27;20034;-93
2021/06/06 07:06:24;;;;;;;14.35;7.40;;;;;;;23.38;50.62;99023.00;5135720;27;20047;-93
2021/06/06 07:08:50;;;;;;;14.32;7.55;;;;;;;24.08;48.40;98997.69;5136540;27;20035;-93
2021/06/06 07:11:21;;;;;;;12.18;7.18;;;;;;;24.46;45.91;98991.00;5136375;27;20507;-92
2021/06/06 07:13:47;;;;;;;14.02;7.18;;;;;;;24.77;46.12;99002.16;5136319;27;20089;-92
2021/06/06 07:16:14;;;;;;;10.23;6.53;;;;;;;24.96;45.04;99009.66;5135324;27;20059;-93
2021/06/06 07:18:41;;;;;;;15.57;6.72;;;;;;;25.02;44.77;98995.53;5136471;27;20043;-95
2021/06/06 07:21:11;;;;;;;13.57;7.00;;;;;;;24.83;44.31;98982.63;5137404;27;20451;-92
2021/06/06 07:23:37;;;;;;;11.02;6.35;;;;;;;24.99;44.03;98993.09;5138231;27;20077;-92
2021/06/06 07:26:09;;;;;;;13.10;6.40;;;;;;;24.58;44.25;98997.34;5138354;27;20492;-93
2021/06/06 07:28:36;;;;;;;12.63;5.28;;;;;;;24.77;44.29;98981.25;5138125;27;20059;-94
2021/06/06 07:31:05;;;;;;;11.38;6.20;;;;;;;25.04;43.94;98989.97;5138590;27;20130;-92
2021/06/06 07:33:37;;;;;;;11.80;6.30;;;;;;;25.31;43.17;98984.09;5140731;27;20039;-94
2021/06/06 07:36:04;;;;;;;13.70;6.13;;;;;;;25.64;42.98;98976.78;5139714;27;20043;-92
2021/06/06 07:38:30;;;;;;;13.90;6.55;;;;;;;25.82;42.08;98959.69;5138365;27;20032;-91
2021/06/06 07:40:57;;;;;;;12.27;6.65;;;;;;;25.76;43.10;98984.78;5143342;27;20046;-87
2021/06/06 07:43:23;;;;;;;13.93;6.60;;;;;;;25.41;42.87;98982.34;5139279;27;20043;-92
2021/06/06 07:45:52;;;;;;;13.48;6.30;;;;;;;25.25;42.95;98971.88;5138576;27;20095;-94
2021/06/06 07:48:18;;;;;;;15.35;6.55;;;;;;;25.44;42.80;98968.47;5138150;27;20454;-90
2021/06/06 07:50:46;;;;;;;11.75;6.10;;;;;;;25.66;42.18;98975.66;5137681;27;20078;-94
2021/06/06 07:53:14;;;;;;;11.63;6.55;;;;;;;26.03;41.20;98972.47;5144744;27;20039;-94
2021/06/06 07:55:40;;;;;;;12.38;6.38;;;;;;;25.76;40.51;98984.78;5137132;27;20035;-91
2021/06/06 07:58:06;;;;;;;11.32;7.00;;;;;;;26.28;40.39;98971.16;5137715;27;20039;-92
2021/06/06 08:00:37;;;;;;;8.85;5.78;;;;;;;26.17;35.90;98982.16;5135973;27;20464;-89
2021/06/06 08:03:05;;;;;;;9.02;4.78;;;;;;;26.39;32.41;98973.81;5138517;27;20476;-90
2021/06/06 08:05:32;;;;;;;;;;;;;;;26.68;33.08;98977.69;5139574;27;20043;-90
2021/06/06 08:07:58;;;;;;;11.85;5.25;;;;;;;27.03;33.00;98977.19;5140190;27;20013;-92
2021/06/06 08:10:26;;;;;;;12.77;5.55;;;;;;;26.82;32.54;98974.53;5146901;27;20078;-93
2021/06/06 08:12:54;;;;;;;7.82;4.40;;;;;;;26.73;33.09;98965.34;5139930;27;20439;-91
2021/06/06 08:15:28;;;;;;;8.30;4.35;;;;;;;26.29;31.49;98942.91;5136640;27;20043;-92
2021/06/06 08:18:02;;;;;;;8.15;4.38;;;;;;;26.15;30.68;98951.44;5137952;27;20035;-92
2021/06/06 08:20:32;;;;;;;8.13;4.28;;;;;;;25.74;30.95;98969.53;5138941;27;20039;-93
2021/06/06 08:22:58;;;;;;;8.57;4.63;;;;;;;25.64;30.98;98957.72;5135220;27;20051;-92
2021/06/06 08:25:24;;;;;;;9.90;4.68;;;;;;;25.35;31.47;98948.34;5135855;27;20035;-92
2021/06/06 08:27:50;;;;;;;9.00;4.35;;;;;;;25.25;30.79;98974.59;5137697;27;20035;-94
2021/06/06 08:30:20;;;;;;;9.18;4.28;;;;;;;25.29;31.05;98969.78;5137353;27;20091;-92
2021/06/06 08:32:46;;;;;;;8.15;4.35;;;;;;;25.47;29.70;98970.91;5133019;27;20062;-92
2021/06/06 08:35:13;;;;;;;10.88;4.68;;;;;;;25.60;29.94;98976.19;5133107;27;20070;-91
2021/06/06 08:37:40;;;;;;;7.95;4.38;;;;;;;25.94;28.75;98970.56;5138014;27;20122;-95
2021/06/06 08:40:09;;;;;;;6.70;3.88;;;;;;;26.20;27.19;98962.81;5136216;27;20046;-93
2021/06/06 08:42:41;;;;;;;5.47;3.80;;;;;;;25.55;25.11;98973.00;5137481;27;20053;-91
2021/06/06 08:45:13;;;;;;;7.95;4.78;;;;;;;25.57;28.64;98969.16;5127100;27;20043;-92
2021/06/06 08:47:40;;;;;;;7.45;3.95;;;;;;;26.20;27.61;98969.13;5136835;27;20069;-94
2021/06/06 08:50:10;;;;;;;6.47;4.30;;;;;;;26.63;26.64;98975.34;5137234;27;20051;-91
2021/06/06 08:52:49;;;;;;;7.72;4.18;;;;;;;25.88;27.06;98987.41;5136500;27;20053;-92
2021/06/06 08:55:30;;;;;;;9.60;4.60;;;;;;;25.82;27.62;98988.81;5135863;27;20054;-91
2021/06/06 08:58:09;;;;;;;7.75;4.13;;;;;;;25.91;28.74;99000.78;5130306;27;20040;-91
2021/06/06 09:00:36;;;;;;;;;;;;;;;26.25;29.25;99001.44;5131416;27;20051;-92
2021/06/06 09:03:07;;;;;;;7.03;4.78;;;;;;;26.36;29.99;98987.72;5134582;27;19931;-91
2021/06/06 09:05:39;;;;;;;7.55;4.75;;;;;;;26.13;30.55;98967.06;5133848;27;20051;-93
2021/06/06 09:08:11;;;;;;;8.65;4.43;;;;;;;26.16;31.00;98973.13;5139820;27;20039;-91
2021/06/06 09:10:40;;;;;;;8.07;4.70;;;;;;;26.24;31.48;98988.81;5139153;27;20051;-91
2021/06/06 09:13:09;;;;;;;7.30;4.53;;;;;;;25.83;31.50;98976.94;5138306;27;20065;-92
2021/06/06 09:15:37;;;;;;;7.45;4.50;;;;;;;26.13;31.73;98965.22;5136566;27;20135;-93
2021/06/06 09:18:19;;;;;;;7.10;4.22;;;;;;;26.19;31.28;98967.38;5132399;27;20126;-91
2021/06/06 09:20:45;;;;;;;9.02;4.93;;;;;;;26.83;30.64;98979.00;5134059;27;20031;-92
2021/06/06 09:23:20;;;;;;;8.82;4.57;;;;;;;27.30;30.31;98979.25;5135822;27;20035;-91
2021/06/06 09:26:00;;;;;;;7.40;4.53;;;;;;;27.75;28.45;98973.19;5130000;28;20059;-92
2021/06/06 09:28:29;;;;;;;7.95;4.18;;;;;;;26.49;30.55;98972.97;5136892;28;20047;-94
2021/06/06 09:30:59;;;;;;;9.02;4.22;;;;;;;26.33;31.38;98946.25;5138494;28;20134;-91
2021/06/06 09:33:29;;;;;;;7.15;4.32;;;;;;;26.55;31.03;98964.25;5139009;28;20040;-93
2021/06/06 09:35:57;;;;;;;7.43;5.07;;;;;;;24.82;32.63;98964.56;5135441;28;20488;-93
2021/06/06 09:38:35;;;;;;;8.45;4.57;;;;;;;25.40;33.01;98947.94;5136507;28;20107;-94
2021/06/06 09:41:17;;;;;;;9.25;4.85;;;;;;;26.13;31.94;98954.34;5134923;28;20035;-94
2021/06/06 09:43:55;;;;;;;9.57;4.50;;;;;;;26.72;31.01;98940.91;5130682;28;20039;-94
2021/06/06 09:46:21;;;;;;;9.40;4.63;;;;;;;27.48;29.90;98932.09;5136057;28;20031;-94
2021/06/06 09:48:49;;;;;;;8.60;4.65;;;;;;;27.64;30.24;98943.31;5134863;28;20045;-93
2021/06/06 09:51:24;;;;;;;8.32;4.75;;;;;;;27.74;30.00;98954.22;5135108;28;20035;-94
2021/06/06 09:53:57;;;;;;;10.02;5.20;;;;;;;27.85;29.64;98932.22;5137645;27;20484;-92
2021/06/06 09:56:26;;;;;;;11.93;5.25;;;;;;;27.78;30.27;98920.09;5135756;28;20047;-94
2021/06/06 09:58:54;;;;;;;12.30;5.07;;;;;;;27.66;30.76;98920.28;5136958;28;20035;-92
2021/06/06 10:01:24;;;;;;;9.40;4.90;;;;;;;27.17;31.63;98919.44;5135770;28;20031;-93
2021/06/06 10:03:53;;;;;;;8.65;4.60;;;;;;;26.37;32.25;98934.03;5136105;28;20039;-93
2021/06/06 10:06:27;;;;;;;9.48;5.00;;;;;;;26.45;31.73;98920.56;5137697;28;20077;-91
2021/06/06 10:09:01;;;;;;;10.30;6.15;;;;;;;26.95;32.11;98938.81;5137276;28;20510;-92
2021/06/06 10:11:36;;;;;;;10.70;6.05;;;;;;;27.22;31.26;98935.44;5140221;27;20036;-92
2021/06/06 10:14:03;;;;;;;8.70;5.05;;;;;;;27.25;29.27;98925.06;5136601;28;20039;-94
2021/06/06 10:16:34;;;;;;;11.13;5.60;;;;;;;27.43;29.12;98924.34;5135966;28;20074;-93
2021/06/06 10:19:07;;;;;;;9.68;5.38;;;;;;;27.66;28.29;98936.69;5138005;28;20045;-91
2021/06/06 10:21:38;;;;;;;12.13;4.70;;;;;;;27.57;28.10;98918.44;5136741;28;20043;-90
2021/06/06 10:24:10;;;;;;;6.60;4.35;;;;;;;26.70;29.18;98911.06;5120892;28;20035;-93
2021/06/06 10:26:38;;;;;;;8.85;4.85;;;;;;;27.03;29.09;98915.25;5116281;28;20097;-93
2021/06/06 10:29:08;;;;;;;6.53;4.65;;;;;;;27.54;28.56;98939.72;5114239;28;20052;-94
2021/06/06 10:31:39;;;;;;;8.48;4.97;;;;;;;27.63;28.10;98934.25;5118146;28;20496;-93
2021/06/06 10:34:12;;;;;;;7.28;4.03;;;;;;;27.56;28.03;98938.56;5118194;27;20047;-91
2021/06/06 10:36:40;;;;;;;7.93;4.70;;;;;;;27.54;28.15;98937.88;5118353;28;20066;-92
2021/06/06 10:39:14;;;;;;;7.43;4.45;;;;;;;27.61;27.10;98938.13;5118745;28;20431;-91
2021/06/06 10:41:50;;;;;;;6.90;4.53;;;;;;;27.82;27.88;98936.09;5133647;27;20040;-91
2021/06/06 10:44:22;;;;;;;9.00;4.82;;;;;;;27.67;27.83;98932.06;5117552;28;20043;-92
2021/06/06 10:46:52;;;;;;;6.00;3.70;;;;;;;27.22;27.57;98939.03;5117366;28;20085;-95
2021/06/06 10:49:21;;;;;;;7.03;4.45;;;;;;;26.60;28.82;98918.34;5118912;28;20103;-94
2021/06/06 10:51:53;;;;;;;6.68;4.50;;;;;;;26.84;29.14;98921.56;5118179;28;20048;-93
2021/06/06 10:54:35;;;;;;;8.73;4.97;;;;;;;27.26;29.22;98928.69;5117823;28;20581;-92
2021/06/06 10:57:03;;;;;;;8.05;5.38;;;;;;;27.55;28.57;98934.09;5118132;28;20036;-91
2021/06/06 10:59:35;;;;;;;6.35;4.30;;;;;;;27.48;28.09;98905.66;5119249;28;20440;-93
2021/06/06 11:02:03;;;;;;;9.52;4.07;;;;;;;27.64;27.86;98911.38;5120085;28;20431;-93
2021/06/06 11:04:33;;;;;;;7.23;4.10;;;;;;;27.65;28.37;98913.13;5120323;28;20078;-91
2021/06/06 11:07:07;;;;;;;8.73;4.55;;;;;;;27.97;27.70;98911.88;5119824;28;20047;-93
2021/06/06 11:09:36;;;;;;;6.50;4.07;;;;;;;27.54;28.21;98926.94;5118099;28;20051;-92
2021/06/06 11:12:05;;;;;;;7.70;4.60;;;;;;;27.42;27.88;98898.91;5118397;28;20455;-92
2021/06/06 11:14:38;;;;;;;8.75;4.88;;;;;;;27.84;27.99;98906.72;5118627;28;20576;-92
2021/06/06 11:17:12;;;;;;;8.48;4.22;;;;;;;27.97;27.00;98900.94;5118474;28;20039;-93
2021/06/06 11:19:39;;;;;;;7.78;3.92;;;;;;;28.10;25.92;98878.75;5119977;28;20051;-93
2021/06/06 11:22:31;;;;;;;9.38;4.72;;;;;;;27.97;26.80;98894.63;5117196;27;20055;-91
2021/06/06 11:24:59;;;;;;;6.60;4.15;;;;;;;28.15;26.54;98892.84;5135636;27;20092;-94
2021/06/06 11:30:40;;;;;;;9.98;4.47;;;;;;;28.40;25.52;98880.34;5149244;27;20364;-92
2021/06/06 11:33:08;;;;;;;6.35;4.25;;;;;;;28.49;25.49;98880.47;5113308;28;20044;-93
2021/06/06 11:35:48;;;;;;;6.00;4.05;;;;;;;28.68;24.22;98889.41;5115126;28;20043;-93
2021/06/06 11:38:43;;;;;;;8.25;3.72;;;;;;;28.43;24.31;98863.63;5114921;28;20044;-92
2021/06/06 11:41:35;;;;;;;6.63;3.90;;;;;;;28.83;24.24;98870.59;5053061;28;20041;-93
2021/06/06 11:44:12;;;;;;;7.88;4.10;;;;;;;28.80;23.67;98854.47;5042956;28;20049;-93